createdAt,value
2023-04-22T00:01:14.735Z,79.29
2023-04-22T00:03:42.353Z,79.18
2023-04-22T00:06:09.041Z,78.79
2023-04-22T00:08:35.580Z,78.57
2023-04-22T00:11:02.375Z,78.54
2023-04-22T00:13:29.043Z,79.06
2023-04-22T00:15:55.575Z,79.10
2023-04-22T00:18:22.152Z,79.43
2023-04-22T00:20:48.597Z,79.26
2023-04-22T00:23:15.014Z,79.20
2023-04-22T00:25:41.484Z,79.12
2023-04-22T00:28:08.109Z,79.41
2023-04-22T00:30:35.787Z,79.01
2023-04-22T00:33:02.294Z,79.10
2023-04-22T00:35:29.191Z,79.51
2023-04-22T00:37:55.867Z,79.47
2023-04-22T00:40:22.465Z,80.03
2023-04-22T00:42:50.748Z,79.70
2023-04-22T00:45:18.965Z,79.83
2023-04-22T00:47:46.429Z,79.98
2023-04-22T00:50:13.230Z,80.07
2023-04-22T00:52:39.693Z,79.69
2023-04-22T00:55:06.866Z,79.96
2023-04-22T00:57:35.843Z,80.14
2023-04-22T01:00:03.717Z,80.32
2023-04-22T01:02:30.510Z,80.01
2023-04-22T01:04:58.868Z,80.13
2023-04-22T01:07:25.385Z,79.39
2023-04-22T01:09:51.988Z,79.72
2023-04-22T01:12:18.472Z,79.47
2023-04-22T01:14:44.930Z,80.38
2023-04-22T01:17:12.307Z,80.09
2023-04-22T01:19:39.100Z,80.61
2023-04-22T01:22:08.001Z,81.05
2023-04-22T01:24:34.847Z,81.20
2023-04-22T01:27:01.995Z,81.46
2023-04-22T01:29:28.736Z,81.47
2023-04-22T01:31:56.025Z,82.15
2023-04-22T01:34:22.711Z,81.95
2023-04-22T01:36:50.802Z,82.26
2023-04-22T01:39:17.982Z,82.09
2023-04-22T01:41:44.579Z,82.48
2023-04-22T01:44:11.297Z,82.39
2023-04-22T01:46:37.936Z,81.89
2023-04-22T01:49:06.073Z,81.67
2023-04-22T01:51:32.686Z,82.14
2023-04-22T01:53:59.309Z,82.19
2023-04-22T01:56:26.026Z,82.10
2023-04-22T01:58:52.476Z,82.25
2023-04-22T02:01:19.320Z,82.28
2023-04-22T02:03:45.956Z,81.95
2023-04-22T02:06:13.607Z,81.90
2023-04-22T02:08:40.177Z,82.00
2023-04-22T02:11:06.676Z,82.31
2023-04-22T02:13:40.765Z,81.44
2023-04-22T02:16:08.170Z,81.56
2023-04-22T02:18:35.152Z,81.92
2023-04-22T02:21:01.807Z,81.40
2023-04-22T02:23:28.942Z,81.31
2023-04-22T02:25:56.007Z,81.22
2023-04-22T02:28:22.694Z,81.27
2023-04-22T02:30:49.202Z,81.17
2023-04-22T02:33:15.674Z,80.73
2023-04-22T02:35:42.137Z,80.73
2023-04-22T02:38:08.609Z,80.73
2023-04-22T02:40:35.126Z,80.66
2023-04-22T02:43:01.609Z,80.53
2023-04-22T02:45:28.499Z,80.61
2023-04-22T02:47:55.555Z,80.27
2023-04-22T02:50:22.232Z,80.34
2023-04-22T02:52:48.702Z,80.35
2023-04-22T02:55:15.639Z,80.80
2023-04-22T02:57:42.093Z,81.14
2023-04-22T03:00:10.265Z,81.16
2023-04-22T03:02:37.168Z,81.43
2023-04-22T03:05:10.687Z,81.71
2023-04-22T03:07:37.164Z,81.65
2023-04-22T03:10:04.028Z,81.60
2023-04-22T03:12:30.561Z,81.30
2023-04-22T03:14:57.103Z,81.43
2023-04-22T03:17:28.003Z,81.40
2023-04-22T03:19:55.150Z,81.79
2023-04-22T03:22:21.783Z,81.81
2023-04-22T03:24:49.960Z,81.15
2023-04-22T03:27:16.597Z,81.43
2023-04-22T03:29:43.454Z,81.30
2023-04-22T03:32:11.021Z,81.47
2023-04-22T03:34:38.030Z,81.35
2023-04-22T03:37:07.293Z,81.62
2023-04-22T03:39:33.815Z,80.79
2023-04-22T03:42:01.511Z,81.43
2023-04-22T03:44:28.836Z,81.22
2023-04-22T03:46:55.590Z,81.45
2023-04-22T03:49:27.545Z,81.21
2023-04-22T03:51:55.884Z,81.26
2023-04-22T03:54:25.364Z,81.17
2023-04-22T03:56:52.751Z,81.62
2023-04-22T03:59:21.271Z,81.23
2023-04-22T04:01:51.508Z,81.49
2023-04-22T04:04:20.784Z,81.49
2023-04-22T04:06:52.514Z,81.54
2023-04-22T04:09:19.328Z,81.89
2023-04-22T04:11:46.497Z,81.51
2023-04-22T04:14:13.490Z,81.87
2023-04-22T04:16:47.213Z,82.13
2023-04-22T04:19:20.784Z,82.14
2023-04-22T04:21:47.314Z,82.25
2023-04-22T04:24:15.023Z,82.58
2023-04-22T04:26:48.791Z,82.76
2023-04-22T04:29:20.518Z,82.69
2023-04-22T04:31:56.568Z,82.73
2023-04-22T04:34:24.441Z,82.82
2023-04-22T04:36:50.961Z,82.90
2023-04-22T04:39:23.981Z,82.75
2023-04-22T04:41:55.048Z,82.92
2023-04-22T04:44:22.892Z,83.01
2023-04-22T04:46:50.666Z,82.94
2023-04-22T04:49:17.208Z,83.07
2023-04-22T04:52:01.943Z,82.98
2023-04-22T04:54:28.883Z,83.17
2023-04-22T04:56:57.329Z,83.01
2023-04-22T04:59:24.593Z,83.14
2023-04-22T05:01:51.499Z,82.95
2023-04-22T05:04:18.359Z,82.85
2023-04-22T05:06:45.017Z,83.09
2023-04-22T05:09:13.375Z,82.82
2023-04-22T05:11:40.486Z,82.65
2023-04-22T05:14:13.684Z,82.52
2023-04-22T05:16:42.397Z,82.50
2023-04-22T05:19:09.885Z,82.13
2023-04-22T05:21:36.613Z,81.73
2023-04-22T05:24:04.128Z,82.03
2023-04-22T05:26:30.609Z,81.75
2023-04-22T05:28:57.152Z,81.56
2023-04-22T05:31:23.680Z,81.29
2023-04-22T05:33:51.095Z,81.47
2023-04-22T05:36:19.098Z,81.32
2023-04-22T05:38:47.472Z,81.30
2023-04-22T05:41:14.817Z,81.53
2023-04-22T05:43:41.440Z,81.67
2023-04-22T05:46:14.742Z,81.56
2023-04-22T05:48:42.644Z,81.64
2023-04-22T05:51:19.999Z,81.53
2023-04-22T05:53:46.712Z,81.92
2023-04-22T05:56:13.293Z,81.94
2023-04-22T05:58:39.806Z,81.98
2023-04-22T06:01:11.186Z,81.99
2023-04-22T06:03:54.482Z,81.74
2023-04-22T06:06:22.853Z,82.30
2023-04-22T06:08:49.416Z,81.89
2023-04-22T06:11:16.063Z,82.18
2023-04-22T06:13:42.644Z,82.26
2023-04-22T06:16:09.578Z,82.24
2023-04-22T06:18:37.996Z,81.80
2023-04-22T06:21:07.890Z,82.54
2023-04-22T06:23:36.145Z,82.34
2023-04-22T06:26:02.767Z,82.33
2023-04-22T06:28:30.284Z,82.32
2023-04-22T06:31:01.357Z,82.31
2023-04-22T06:33:29.071Z,82.15
2023-04-22T06:35:55.551Z,82.50
2023-04-22T06:38:22.216Z,82.35
2023-04-22T06:41:22.179Z,82.27
2023-04-22T06:43:49.941Z,82.55
2023-04-22T06:46:49.337Z,81.96
2023-04-22T06:49:47.881Z,82.34
2023-04-22T06:52:24.310Z,82.08
2023-04-22T06:54:53.280Z,81.35
2023-04-22T06:57:19.793Z,81.40
2023-04-22T06:59:47.030Z,81.74
2023-04-22T07:02:14.754Z,81.20
2023-04-22T07:04:41.683Z,81.37
2023-04-22T07:07:08.394Z,80.99
2023-04-22T07:09:36.203Z,79.91
2023-04-22T07:12:02.799Z,80.07
2023-04-22T07:14:30.520Z,79.46
2023-04-22T07:16:56.957Z,78.78
2023-04-22T07:19:23.471Z,78.30
2023-04-22T07:21:49.966Z,78.28
2023-04-22T07:24:16.478Z,77.13
2023-04-22T07:26:44.350Z,77.00
2023-04-22T07:29:12.872Z,76.73
2023-04-22T07:31:39.357Z,76.51
2023-04-22T07:34:05.843Z,76.41
2023-04-22T07:36:33.128Z,75.95
2023-04-22T07:38:59.788Z,75.84
2023-04-22T07:41:26.211Z,75.67
2023-04-22T07:43:52.863Z,75.09
2023-04-22T07:46:19.585Z,74.84
2023-04-22T07:48:46.149Z,74.66
2023-04-22T07:51:12.592Z,74.37
2023-04-22T07:53:39.203Z,74.10
2023-04-22T07:56:05.675Z,73.82
2023-04-22T07:58:32.141Z,73.54
2023-04-22T08:00:58.644Z,73.26
2023-04-22T08:03:25.352Z,73.08
2023-04-22T08:05:52.060Z,72.56
2023-04-22T08:08:18.559Z,72.63
2023-04-22T08:10:44.974Z,72.81
2023-04-22T08:13:11.573Z,72.42
2023-04-22T08:15:38.044Z,71.89
2023-04-22T08:18:04.561Z,71.25
2023-04-22T08:20:31.104Z,70.55
2023-04-22T08:23:00.411Z,69.58
2023-04-22T08:25:27.850Z,69.44
2023-04-22T08:27:54.406Z,69.19
2023-04-22T08:30:20.891Z,68.83
2023-04-22T08:32:47.573Z,68.79
2023-04-22T08:35:14.187Z,68.12
2023-04-22T08:37:41.297Z,67.46
2023-04-22T08:40:08.657Z,66.84
2023-04-22T08:42:35.628Z,66.31
2023-04-22T08:45:05.798Z,66.01
2023-04-22T08:47:35.726Z,65.97
2023-04-22T08:50:04.176Z,65.73
2023-04-22T08:52:31.386Z,66.17
2023-04-22T08:54:57.808Z,65.78
2023-04-22T08:57:24.680Z,64.79
2023-04-22T08:59:51.929Z,63.78
2023-04-22T09:02:23.325Z,63.02
2023-04-22T09:04:51.597Z,61.97
2023-04-22T09:07:24.893Z,60.63
2023-04-22T09:09:53.148Z,60.05
2023-04-22T09:12:19.663Z,59.17
2023-04-22T09:14:46.138Z,57.20
2023-04-22T09:17:17.195Z,55.13
2023-04-22T09:19:43.853Z,55.95
2023-04-22T09:22:16.008Z,56.76
2023-04-22T09:24:51.653Z,56.41
2023-04-22T09:27:19.066Z,54.77
2023-04-22T09:29:52.932Z,53.64
2023-04-22T09:32:19.772Z,52.49
2023-04-22T09:34:49.265Z,53.23
2023-04-22T09:37:19.791Z,52.80
2023-04-22T09:39:49.753Z,52.01
2023-04-22T09:42:19.678Z,52.28
2023-04-22T09:44:48.240Z,52.47
2023-04-22T09:47:15.925Z,50.38
2023-04-22T09:49:49.873Z,51.16
2023-04-22T09:52:25.037Z,52.68
2023-04-22T09:54:54.629Z,52.74
2023-04-22T09:57:22.032Z,53.64
2023-04-22T09:59:51.002Z,53.57
2023-04-22T10:02:17.496Z,53.41
2023-04-22T10:04:44.313Z,54.14
2023-04-22T10:07:10.785Z,54.00
2023-04-22T10:09:37.645Z,53.79
2023-04-22T10:12:05.117Z,54.00
2023-04-22T10:14:31.623Z,52.96
2023-04-22T10:17:01.084Z,52.58
2023-04-22T10:19:28.805Z,52.05
2023-04-22T10:22:01.200Z,51.57
2023-04-22T10:24:29.246Z,49.60
2023-04-22T10:26:58.163Z,49.10
2023-04-22T10:29:26.403Z,49.40
2023-04-22T10:32:04.219Z,47.50
2023-04-22T10:34:34.263Z,47.56
2023-04-22T10:37:06.425Z,49.16
2023-04-22T10:39:33.216Z,50.40
2023-04-22T10:42:02.665Z,49.76
2023-04-22T10:44:44.778Z,49.61
2023-04-22T10:47:11.334Z,46.17
2023-04-22T10:49:38.292Z,45.87
2023-04-22T10:52:07.766Z,45.57
2023-04-22T10:54:37.021Z,46.18
2023-04-22T10:57:08.564Z,46.47
2023-04-22T10:59:41.933Z,45.22
2023-04-22T11:02:09.367Z,45.75
2023-04-22T11:04:37.263Z,46.05
2023-04-22T11:07:31.662Z,43.41
2023-04-22T11:10:07.691Z,42.89
2023-04-22T11:12:41.876Z,43.11
2023-04-22T11:15:10.837Z,43.75
2023-04-22T11:17:38.239Z,43.69
2023-04-22T11:20:07.104Z,45.16
2023-04-22T11:22:38.274Z,45.13
2023-04-22T11:25:06.278Z,44.62
2023-04-22T11:27:32.922Z,43.74
2023-04-22T11:30:05.291Z,42.61
2023-04-22T11:32:32.294Z,41.45
2023-04-22T11:34:58.874Z,40.52
2023-04-22T11:37:25.406Z,40.09
2023-04-22T11:40:13.782Z,40.37
2023-04-22T11:42:39.443Z,40.19
2023-04-22T11:45:07.272Z,40.17
2023-04-22T11:47:34.813Z,40.36
2023-04-22T11:50:05.051Z,39.61
2023-04-22T11:52:48.062Z,39.59
2023-04-22T11:55:21.938Z,39.96
2023-04-22T11:57:58.558Z,39.85
2023-04-22T12:00:33.930Z,39.71
2023-04-22T12:03:07.917Z,39.34
2023-04-22T12:05:40.223Z,39.61
2023-04-22T12:08:09.145Z,39.40
2023-04-22T12:10:43.808Z,39.87
2023-04-22T12:13:17.740Z,39.51
2023-04-22T12:15:44.958Z,40.05
2023-04-22T12:18:12.688Z,39.69
2023-04-22T12:20:41.137Z,39.68
2023-04-22T12:23:16.860Z,40.09
2023-04-22T12:25:43.505Z,39.84
2023-04-22T12:28:10.216Z,38.76
2023-04-22T12:30:36.687Z,37.39
2023-04-22T12:33:03.314Z,38.13
2023-04-22T12:35:29.704Z,37.61
2023-04-22T12:37:56.185Z,37.90
2023-04-22T12:40:22.682Z,37.78
2023-04-22T12:42:49.129Z,36.70
2023-04-22T12:45:16.720Z,36.64
2023-04-22T12:47:43.360Z,36.45
2023-04-22T12:50:09.821Z,35.93
2023-04-22T12:52:36.369Z,36.57
2023-04-22T12:55:02.872Z,36.75
2023-04-22T12:57:29.408Z,37.00
2023-04-22T12:59:56.584Z,37.46
2023-04-22T13:02:23.274Z,36.74
2023-04-22T13:04:49.706Z,38.12
2023-04-22T13:07:17.475Z,38.82
2023-04-22T13:09:44.373Z,37.72
2023-04-22T13:12:11.240Z,38.41
2023-04-22T13:14:37.734Z,37.42
2023-04-22T13:17:04.234Z,36.43
2023-04-22T13:19:31.813Z,37.71
2023-04-22T13:21:58.326Z,38.94
2023-04-22T13:24:24.754Z,39.13
2023-04-22T13:26:51.214Z,38.55
2023-04-22T13:29:17.760Z,39.57
2023-04-22T13:31:46.830Z,40.05
2023-04-22T13:34:13.368Z,39.97
2023-04-22T13:36:39.823Z,39.58
2023-04-22T13:39:06.414Z,39.76
2023-04-22T13:41:32.863Z,39.45
2023-04-22T13:43:59.682Z,39.96
2023-04-22T13:46:27.207Z,40.76
2023-04-22T13:48:54.334Z,41.41
2023-04-22T13:51:20.797Z,41.93
2023-04-22T13:53:47.276Z,42.54
2023-04-22T13:56:13.897Z,42.00
2023-04-22T13:58:42.425Z,40.60
2023-04-22T14:01:09.331Z,40.73
2023-04-22T14:03:36.539Z,41.13
2023-04-22T14:06:03.863Z,42.05
2023-04-22T14:08:30.406Z,42.78
2023-04-22T14:10:57.216Z,43.19
2023-04-22T14:13:23.695Z,43.79
2023-04-22T14:15:50.652Z,43.99
2023-04-22T14:18:17.173Z,44.12
2023-04-22T14:20:45.108Z,43.99
2023-04-22T14:23:11.842Z,44.48
2023-04-22T14:25:38.310Z,44.98
2023-04-22T14:28:04.829Z,44.98
2023-04-22T14:30:31.836Z,44.65
2023-04-22T14:32:58.829Z,44.99
2023-04-22T14:35:25.256Z,44.88
2023-04-22T14:37:51.737Z,45.04
2023-04-22T14:40:19.957Z,44.96
2023-04-22T14:42:46.966Z,45.12
2023-04-22T14:45:14.653Z,44.98
2023-04-22T14:47:41.206Z,45.35
2023-04-22T14:50:07.875Z,45.46
2023-04-22T14:52:34.466Z,45.04
2023-04-22T14:55:11.871Z,44.86
2023-04-22T14:57:47.612Z,44.74
2023-04-22T15:00:14.551Z,45.01
2023-04-22T15:02:41.208Z,46.08
2023-04-22T15:05:08.321Z,46.21
2023-04-22T15:07:34.845Z,46.60
2023-04-22T15:10:01.294Z,46.93
2023-04-22T15:12:28.265Z,47.33
2023-04-22T15:14:54.792Z,47.98
2023-04-22T15:17:21.509Z,48.06
2023-04-22T15:19:48.001Z,48.06
2023-04-22T15:22:14.406Z,48.65
2023-04-22T15:24:40.977Z,48.93
2023-04-22T15:27:07.546Z,49.42
2023-04-22T15:29:33.990Z,49.78
2023-04-22T15:32:02.066Z,50.49
2023-04-22T15:34:28.660Z,50.83
2023-04-22T15:36:55.114Z,50.90
2023-04-22T15:39:21.747Z,50.35
2023-04-22T15:41:48.265Z,49.81
2023-04-22T15:44:16.130Z,49.61
2023-04-22T15:46:42.648Z,49.16
2023-04-22T15:49:09.135Z,49.13
2023-04-22T15:51:35.728Z,49.53
2023-04-22T15:54:21.759Z,49.69
2023-04-22T15:56:48.246Z,50.40
2023-04-22T15:59:14.757Z,51.58
2023-04-22T16:01:41.912Z,52.75
2023-04-22T16:04:09.790Z,53.27
2023-04-22T16:06:38.042Z,53.28
2023-04-22T16:09:05.296Z,52.47
2023-04-22T16:11:31.785Z,52.02
2023-04-22T16:13:58.228Z,51.83
2023-04-22T16:16:25.931Z,50.67
2023-04-22T16:18:55.074Z,50.49
2023-04-22T16:21:21.556Z,50.22
2023-04-22T16:23:48.665Z,49.97
2023-04-22T16:26:15.575Z,50.82
2023-04-22T16:28:42.100Z,50.58
2023-04-22T16:31:08.935Z,50.54
2023-04-22T16:33:35.848Z,50.42
2023-04-22T16:36:02.312Z,50.52
2023-04-22T16:38:28.795Z,49.81
2023-04-22T16:40:55.262Z,49.10
2023-04-22T16:43:21.941Z,48.06
2023-04-22T16:45:48.844Z,47.77
2023-04-22T16:48:15.373Z,47.70
2023-04-22T16:50:41.839Z,47.79
2023-04-22T16:53:09.900Z,48.14
2023-04-22T16:55:37.110Z,49.85
2023-04-22T16:58:03.960Z,50.89
2023-04-22T17:00:30.682Z,51.40
2023-04-22T17:02:57.337Z,51.55
2023-04-22T17:05:23.836Z,51.28
2023-04-22T17:07:50.391Z,51.71
2023-04-22T17:10:16.908Z,51.84
2023-04-22T17:12:44.020Z,52.12
2023-04-22T17:15:11.761Z,52.20
2023-04-22T17:17:38.223Z,52.04
2023-04-22T17:20:06.565Z,52.59
2023-04-22T17:22:33.272Z,52.82
2023-04-22T17:24:59.760Z,52.84
2023-04-22T17:27:26.642Z,53.29
2023-04-22T17:29:53.061Z,53.53
2023-04-22T17:32:19.858Z,53.92
2023-04-22T17:34:46.425Z,53.88
2023-04-22T17:37:12.866Z,53.88
2023-04-22T17:39:40.274Z,53.87
2023-04-22T17:42:06.756Z,53.92
2023-04-22T17:44:33.385Z,53.80
2023-04-22T17:47:00.030Z,53.37
2023-04-22T17:49:26.602Z,53.38
2023-04-22T17:51:53.756Z,52.95
2023-04-22T17:54:20.286Z,52.53
2023-04-22T17:56:47.130Z,52.35
2023-04-22T17:59:13.549Z,52.62
2023-04-22T18:01:40.351Z,52.43
2023-04-22T18:04:06.990Z,52.46
2023-04-22T18:06:33.595Z,52.19
2023-04-22T18:09:00.104Z,51.82
2023-04-22T18:11:27.840Z,51.77
2023-04-22T18:13:54.811Z,51.36
2023-04-22T18:16:21.424Z,50.94
2023-04-22T18:18:47.829Z,50.90
2023-04-22T18:21:14.374Z,51.02
2023-04-22T18:23:40.908Z,51.35
2023-04-22T18:26:11.148Z,51.13
2023-04-22T18:28:40.110Z,50.92
2023-04-22T18:31:07.963Z,50.69
2023-04-22T18:33:35.288Z,50.61
2023-04-22T18:36:01.962Z,51.77
2023-04-22T18:38:28.453Z,53.48
2023-04-22T18:40:55.516Z,54.35
2023-04-22T18:43:22.241Z,54.69
2023-04-22T18:45:48.692Z,55.37
2023-04-22T18:48:18.737Z,55.75
2023-04-22T18:50:45.579Z,56.14
2023-04-22T18:53:12.050Z,56.51
2023-04-22T18:55:38.536Z,56.64
2023-04-22T18:58:04.970Z,57.00
2023-04-22T19:00:31.473Z,57.13
2023-04-22T19:02:58.065Z,57.36
2023-04-22T19:05:24.895Z,57.21
2023-04-22T19:07:51.869Z,57.38
2023-04-22T19:10:18.567Z,57.57
2023-04-22T19:12:45.026Z,57.71
2023-04-22T19:15:11.719Z,57.76
2023-04-22T19:17:38.602Z,57.90
2023-04-22T19:20:06.362Z,58.45
2023-04-22T19:22:32.883Z,58.80
2023-04-22T19:24:59.348Z,58.79
2023-04-22T19:27:25.846Z,58.94
2023-04-22T19:29:53.464Z,59.57
2023-04-22T19:32:20.852Z,59.76
2023-04-22T19:34:47.733Z,59.74
2023-04-22T19:37:14.198Z,60.08
2023-04-22T19:39:40.854Z,60.09
2023-04-22T19:42:07.692Z,60.82
2023-04-22T19:44:34.273Z,60.68
2023-04-22T19:47:01.286Z,60.61
2023-04-22T19:49:28.601Z,60.85
2023-04-22T19:51:56.757Z,60.63
2023-04-22T19:54:26.478Z,60.98
2023-04-22T19:56:53.175Z,61.27
2023-04-22T19:59:19.749Z,61.46
2023-04-22T20:01:46.437Z,61.54
2023-04-22T20:04:13.253Z,61.44
2023-04-22T20:06:40.500Z,61.96
2023-04-22T20:09:07.393Z,61.97
2023-04-22T20:11:34.788Z,62.02
2023-04-22T20:14:02.060Z,62.32
2023-04-22T20:16:28.767Z,62.67
2023-04-22T20:18:55.317Z,63.07
2023-04-22T20:21:23.105Z,63.10
2023-04-22T20:23:51.086Z,63.59
2023-04-22T20:26:19.013Z,64.16
2023-04-22T20:28:48.190Z,64.63
2023-04-22T20:31:18.684Z,64.60
2023-04-22T20:33:45.508Z,65.33
2023-04-22T20:36:14.737Z,66.02
2023-04-22T20:38:43.028Z,66.56
2023-04-22T20:41:10.113Z,66.67
2023-04-22T20:43:36.634Z,67.66
2023-04-22T20:46:03.348Z,68.46
2023-04-22T20:48:29.837Z,69.05
2023-04-22T20:50:56.291Z,69.71
2023-04-22T20:53:23.703Z,69.85
2023-04-22T20:55:50.902Z,70.69
2023-04-22T20:58:17.304Z,70.79
2023-04-22T21:00:43.839Z,71.05
2023-04-22T21:03:11.087Z,71.28
2023-04-22T21:05:42.498Z,71.38
2023-04-22T21:08:23.143Z,71.67
2023-04-22T21:10:52.102Z,72.44
2023-04-22T21:13:19.209Z,72.22
2023-04-22T21:15:59.075Z,73.00
2023-04-22T21:18:27.801Z,72.66
2023-04-22T21:20:56.368Z,73.53
2023-04-22T21:23:26.691Z,73.26
2023-04-22T21:25:57.194Z,73.37
2023-04-22T21:28:24.035Z,74.05
2023-04-22T21:30:50.834Z,74.28
2023-04-22T21:33:17.314Z,74.39
2023-04-22T21:35:43.957Z,74.21
2023-04-22T21:38:10.611Z,74.38
2023-04-22T21:40:37.079Z,74.56
2023-04-22T21:43:04.676Z,74.60
2023-04-22T21:45:31.284Z,75.21
2023-04-22T21:48:01.018Z,75.42
2023-04-22T21:50:30.026Z,75.40
2023-04-22T21:52:56.698Z,75.30
2023-04-22T21:55:23.141Z,75.89
2023-04-22T21:57:49.651Z,75.69
2023-04-22T22:00:18.589Z,75.79
2023-04-22T22:02:46.203Z,75.45
2023-04-22T22:05:14.702Z,75.62
2023-04-22T22:07:42.452Z,75.75
2023-04-22T22:10:12.005Z,76.14
2023-04-22T22:12:38.493Z,75.73
2023-04-22T22:15:11.831Z,76.17
2023-04-22T22:17:40.070Z,76.00
2023-04-22T22:20:11.154Z,75.91
2023-04-22T22:22:41.981Z,76.12
2023-04-22T22:25:10.897Z,76.32
2023-04-22T22:27:40.744Z,76.03
2023-04-22T22:30:08.478Z,76.12
2023-04-22T22:32:35.359Z,76.72
2023-04-22T22:35:02.057Z,76.62
2023-04-22T22:37:28.665Z,76.37
2023-04-22T22:39:55.154Z,76.16
2023-04-22T22:42:21.696Z,76.58
2023-04-22T22:44:48.157Z,75.94
2023-04-22T22:47:17.435Z,76.12
2023-04-22T22:49:44.708Z,75.68
2023-04-22T22:52:12.157Z,75.77
2023-04-22T22:54:40.431Z,76.00
2023-04-22T22:57:07.446Z,75.96
2023-04-22T22:59:34.552Z,75.79
2023-04-22T23:02:01.165Z,75.80
2023-04-22T23:04:28.322Z,75.68
2023-04-22T23:06:55.703Z,75.75
2023-04-22T23:09:22.348Z,75.40
2023-04-22T23:11:51.730Z,75.25
2023-04-22T23:14:19.964Z,75.56
2023-04-22T23:16:47.546Z,75.01
2023-04-22T23:19:14.818Z,75.27
2023-04-22T23:21:42.144Z,74.62
2023-04-22T23:24:13.409Z,74.50
2023-04-22T23:26:39.948Z,74.20
2023-04-22T23:29:07.381Z,73.80
2023-04-22T23:31:35.181Z,73.57
2023-04-22T23:34:03.612Z,73.15
2023-04-22T23:36:32.963Z,73.19
2023-04-22T23:39:03.411Z,72.80
2023-04-22T23:41:29.952Z,72.22
2023-04-22T23:43:56.453Z,72.19
2023-04-22T23:46:23.122Z,72.37
2023-04-22T23:48:49.880Z,71.91
2023-04-22T23:51:16.739Z,72.02
2023-04-22T23:53:44.355Z,72.58
2023-04-22T23:56:11.881Z,71.67
2023-04-22T23:58:39.006Z,71.38
